Time;durP1;ratioP1;P1;durP2;ratioP2;P2;SDS_P1;SDS_P2;PMS_P1;PMS_P2;Temp;Humidity;BMP_temperature;BMP_pressure;BME280_temperature;BME280_humidity;BME280_pressure;Samples;Min_cycle;Max_cycle;Signal;HPM_P1;HPM_P2
2021/08/22 00:00:31;;;;;;;;;;;18.80;71.80;;;;;;494201;240;1237;-46
2021/08/22 00:02:33;;;;;;;;;;;18.80;71.80;;;;;;493995;240;1211;-46
2021/08/22 00:04:34;;;;;;;;;;;18.90;71.80;;;;;;494535;240;1081;-46
2021/08/22 00:06:35;;;;;;;;;;;18.90;71.90;;;;;;493973;240;1091;-46
2021/08/22 00:08:37;;;;;;;;;;;18.80;71.90;;;;;;494506;240;1277;-46
2021/08/22 00:10:38;;;;;;;;;;;18.80;72.00;;;;;;494562;240;1066;-46
2021/08/22 00:12:39;;;;;;;;;;;18.80;72.00;;;;;;493956;240;1193;-46
2021/08/22 00:14:41;;;;;;;;;;;18.80;71.90;;;;;;494389;240;1041;-46
2021/08/22 00:16:42;;;;;;;;;;;18.80;71.90;;;;;;494433;240;1542;-46
2021/08/22 00:18:43;;;;;;;;;;;18.80;71.80;;;;;;494044;240;2195;-46
2021/08/22 00:20:44;;;;;;;;;;;18.80;71.80;;;;;;494422;240;1710;-46
2021/08/22 00:22:46;;;;;;;;;;;18.80;71.90;;;;;;493999;240;1325;-46
2021/08/22 00:24:47;;;;;;;;;;;18.80;72.10;;;;;;494111;240;1109;-46
2021/08/22 00:26:48;;;;;;;;;;;18.80;72.00;;;;;;494379;240;1335;-46
2021/08/22 00:28:50;;;;;;;;;;;18.80;72.00;;;;;;494191;240;1092;-46
2021/08/22 00:30:51;;;;;;;;;;;18.80;71.90;;;;;;494559;240;1054;-46
2021/08/22 00:32:52;;;;;;;;;;;18.80;72.00;;;;;;494496;240;1276;-46
2021/08/22 00:34:54;;;;;;;;;;;18.80;71.90;;;;;;494580;240;1016;-46
2021/08/22 00:36:55;;;;;;;;;;;18.80;71.90;;;;;;494033;240;1969;-46
2021/08/22 00:38:56;;;;;;;;;;;18.80;72.00;;;;;;494492;240;2190;-46
2021/08/22 00:40:58;;;;;;;;;;;18.80;71.90;;;;;;494372;240;1052;-46
2021/08/22 00:43:00;;;;;;;;;;;18.80;72.00;;;;;;494034;240;1192;-46
2021/08/22 00:45:00;;;;;;;;;;;18.80;71.90;;;;;;493995;241;2356;-46
2021/08/22 00:47:02;;;;;;;;;;;18.80;72.00;;;;;;494468;240;1175;-46
2021/08/22 00:49:03;;;;;;;;;;;18.70;71.80;;;;;;494262;240;1169;-46
2021/08/22 00:51:04;;;;;;;;;;;18.80;71.90;;;;;;494322;240;1144;-46
2021/08/22 00:53:06;;;;;;;;;;;18.80;72.00;;;;;;494063;240;1316;-46
2021/08/22 00:55:07;;;;;;;;;;;18.80;72.10;;;;;;494352;240;1055;-46
2021/08/22 00:57:08;;;;;;;;;;;18.80;72.10;;;;;;494178;240;1375;-46
2021/08/22 00:59:10;;;;;;;;;;;18.70;72.00;;;;;;494106;240;2144;-46
2021/08/22 01:01:11;;;;;;;;;;;18.80;72.10;;;;;;494076;240;1187;-46
2021/08/22 01:03:12;;;;;;;;;;;18.70;72.00;;;;;;494493;240;1272;-46
2021/08/22 01:05:14;;;;;;;;;;;18.70;72.00;;;;;;494089;240;1074;-46
2021/08/22 01:07:15;;;;;;;;;;;18.70;72.00;;;;;;494246;240;1242;-46
2021/08/22 01:09:16;;;;;;;;;;;18.80;72.00;;;;;;494071;240;1078;-46
2021/08/22 01:11:17;;;;;;;;;;;18.70;71.90;;;;;;494078;239;1238;-46
2021/08/22 01:13:19;;;;;;;;;;;18.70;71.90;;;;;;494053;240;1045;-46
2021/08/22 01:15:20;;;;;;;;;;;18.70;72.00;;;;;;494073;240;1051;-46
2021/08/22 01:17:22;;;;;;;;;;;18.70;72.00;;;;;;494180;240;1254;-46
2021/08/22 01:19:23;;;;;;;;;;;18.70;72.00;;;;;;494125;240;2167;-46
2021/08/22 01:21:24;;;;;;;;;;;18.70;72.00;;;;;;494141;240;1115;-46
2021/08/22 01:23:28;;;;;;;;;;;18.70;72.10;;;;;;494292;240;1161;-46
2021/08/22 01:25:27;;;;;;;;;;;18.70;72.00;;;;;;493879;241;1668;-46
2021/08/22 01:27:28;;;;;;;;;;;18.70;72.00;;;;;;494239;240;1078;-46
2021/08/22 01:29:29;;;;;;;;;;;18.70;72.00;;;;;;494533;240;1018;-46
2021/08/22 01:31:31;;;;;;;;;;;18.70;72.00;;;;;;494063;240;1096;-46
2021/08/22 01:33:32;;;;;;;;;;;18.70;72.10;;;;;;494520;240;1538;-46
2021/08/22 01:35:33;;;;;;;;;;;18.70;72.10;;;;;;494090;240;1082;-46
2021/08/22 01:37:35;;;;;;;;;;;18.80;72.10;;;;;;494543;240;1065;-46
2021/08/22 01:39:37;;;;;;;;;;;18.80;72.10;;;;;;494460;240;2135;-46
2021/08/22 01:41:38;;;;;;;;;;;18.70;72.00;;;;;;494118;240;1299;-46
2021/08/22 01:43:39;;;;;;;;;;;18.70;72.00;;;;;;494140;240;1054;-46
2021/08/22 01:45:41;;;;;;;;;;;18.70;72.00;;;;;;494456;240;1032;-46
2021/08/22 01:47:42;;;;;;;;;;;18.70;72.00;;;;;;494342;240;1255;-46
2021/08/22 01:49:43;;;;;;;;;;;18.70;72.00;;;;;;494323;240;1265;-46
2021/08/22 01:51:44;;;;;;;;;;;18.70;72.10;;;;;;494058;240;1249;-46
2021/08/22 01:53:46;;;;;;;;;;;18.70;72.10;;;;;;494087;240;1076;-46
2021/08/22 01:55:47;;;;;;;;;;;18.70;72.10;;;;;;494048;240;1133;-46
2021/08/22 01:57:48;;;;;;;;;;;18.70;72.10;;;;;;494031;240;1319;-46
2021/08/22 01:59:50;;;;;;;;;;;18.70;72.10;;;;;;494556;240;2139;-46
2021/08/22 02:01:51;;;;;;;;;;;18.70;72.10;;;;;;494266;240;1409;-46
2021/08/22 02:03:54;;;;;;;;;;;18.70;72.10;;;;;;494553;240;1115;-46
2021/08/22 02:05:54;;;;;;;;;;;18.70;72.10;;;;;;494471;240;2230;-46
2021/08/22 02:07:55;;;;;;;;;;;18.70;72.00;;;;;;494548;240;1129;-46
2021/08/22 02:09:56;;;;;;;;;;;18.70;72.10;;;;;;494422;240;1088;-46
2021/08/22 02:11:58;;;;;;;;;;;18.70;72.10;;;;;;494024;240;1117;-46
2021/08/22 02:13:59;;;;;;;;;;;18.70;72.10;;;;;;494123;240;1174;-46
2021/08/22 02:16:00;;;;;;;;;;;18.70;72.10;;;;;;494103;240;1062;-46
2021/08/22 02:18:02;;;;;;;;;;;18.70;72.10;;;;;;494220;240;1212;-46
2021/08/22 02:20:03;;;;;;;;;;;18.70;72.20;;;;;;494325;240;2126;-46
2021/08/22 02:22:04;;;;;;;;;;;18.70;72.10;;;;;;494097;240;1236;-46
2021/08/22 02:24:06;;;;;;;;;;;18.70;72.00;;;;;;494069;240;1073;-46
2021/08/22 02:26:07;;;;;;;;;;;18.70;72.10;;;;;;494128;240;1155;-46
2021/08/22 02:28:08;;;;;;;;;;;18.70;72.10;;;;;;494090;240;1072;-46
2021/08/22 02:30:10;;;;;;;;;;;18.70;72.10;;;;;;494599;240;1075;-46
2021/08/22 02:32:11;;;;;;;;;;;18.70;72.20;;;;;;494132;240;1476;-46
2021/08/22 02:34:12;;;;;;;;;;;18.70;72.30;;;;;;494113;240;1412;-46
2021/08/22 02:36:13;;;;;;;;;;;18.70;72.20;;;;;;494129;240;1107;-46
2021/08/22 02:38:15;;;;;;;;;;;18.70;72.30;;;;;;494254;240;1146;-46
2021/08/22 02:40:16;;;;;;;;;;;18.70;72.30;;;;;;494226;240;2183;-46
2021/08/22 02:42:17;;;;;;;;;;;18.70;72.20;;;;;;494501;240;1224;-46
2021/08/22 02:44:19;;;;;;;;;;;18.70;72.20;;;;;;494547;240;1121;-46
2021/08/22 02:46:20;;;;;;;;;;;18.70;72.20;;;;;;494560;240;1582;-46
2021/08/22 02:48:21;;;;;;;;;;;18.70;72.20;;;;;;494518;240;1431;-46
2021/08/22 02:50:23;;;;;;;;;;;18.70;72.30;;;;;;494342;240;1111;-46
2021/08/22 02:52:24;;;;;;;;;;;18.60;72.20;;;;;;494033;240;1270;-46
2021/08/22 02:54:25;;;;;;;;;;;18.70;72.20;;;;;;494112;240;1136;-46
2021/08/22 02:56:27;;;;;;;;;;;18.70;72.20;;;;;;494432;240;1086;-46
2021/08/22 02:58:28;;;;;;;;;;;18.70;72.20;;;;;;494322;240;1226;-46
2021/08/22 03:00:29;;;;;;;;;;;18.60;72.30;;;;;;494566;240;2128;-46
2021/08/22 03:02:31;;;;;;;;;;;18.70;72.30;;;;;;494160;240;1434;-46
2021/08/22 03:04:32;;;;;;;;;;;18.70;72.30;;;;;;494121;240;1278;-46
2021/08/22 03:06:33;;;;;;;;;;;18.60;72.10;;;;;;494109;240;1203;-46
2021/08/22 03:08:35;;;;;;;;;;;18.60;72.20;;;;;;494094;240;1051;-46
2021/08/22 03:10:36;;;;;;;;;;;18.60;72.30;;;;;;494375;240;1073;-46
2021/08/22 03:12:37;;;;;;;;;;;18.70;72.30;;;;;;494379;240;1138;-46
2021/08/22 03:14:39;;;;;;;;;;;18.60;72.30;;;;;;494179;240;1062;-46
2021/08/22 03:16:40;;;;;;;;;;;18.60;72.20;;;;;;494347;240;1174;-46
2021/08/22 03:18:41;;;;;;;;;;;18.70;72.20;;;;;;494275;240;2143;-46
2021/08/22 03:20:42;;;;;;;;;;;18.60;72.10;;;;;;494387;240;1183;-46
2021/08/22 03:22:44;;;;;;;;;;;18.70;72.30;;;;;;494312;240;1124;-46
2021/08/22 03:24:45;;;;;;;;;;;18.70;72.20;;;;;;494588;240;1132;-46
2021/08/22 03:26:46;;;;;;;;;;;18.70;72.30;;;;;;494451;240;1101;-46
2021/08/22 03:28:48;;;;;;;;;;;18.70;72.30;;;;;;494563;240;1043;-46
2021/08/22 03:30:52;;;;;;;;;;;18.70;72.30;;;;;;494052;240;1034;-46
2021/08/22 03:32:50;;;;;;;;;;;18.60;72.20;;;;;;493836;241;1967;-46
2021/08/22 03:34:52;;;;;;;;;;;18.60;72.20;;;;;;494595;240;1027;-46
2021/08/22 03:36:53;;;;;;;;;;;18.60;72.30;;;;;;494116;240;1210;-46
2021/08/22 03:38:54;;;;;;;;;;;18.60;72.30;;;;;;494375;240;2143;-46
2021/08/22 03:40:56;;;;;;;;;;;18.70;72.30;;;;;;494580;240;1060;-46
2021/08/22 03:42:57;;;;;;;;;;;18.70;72.10;;;;;;494518;240;1198;-46
2021/08/22 03:44:58;;;;;;;;;;;18.70;72.20;;;;;;494563;240;1078;-46
2021/08/22 03:47:00;;;;;;;;;;;18.70;72.30;;;;;;494026;240;1131;-46
2021/08/22 03:49:01;;;;;;;;;;;18.60;72.30;;;;;;494531;240;1006;-46
2021/08/22 03:51:02;;;;;;;;;;;18.60;72.30;;;;;;494333;240;1153;-46
2021/08/22 03:53:04;;;;;;;;;;;18.60;72.30;;;;;;494496;240;1180;-46
2021/08/22 03:55:05;;;;;;;;;;;18.70;72.20;;;;;;494121;240;1089;-46
2021/08/22 03:57:06;;;;;;;;;;;18.70;72.30;;;;;;494154;240;1177;-46
2021/08/22 03:59:08;;;;;;;;;;;18.70;72.30;;;;;;494593;240;2123;-46
2021/08/22 04:01:09;;;;;;;;;;;18.70;72.30;;;;;;494529;240;1130;-46
2021/08/22 04:03:10;;;;;;;;;;;18.60;72.30;;;;;;494120;240;1552;-46
2021/08/22 04:05:13;;;;;;;;;;;18.60;72.40;;;;;;494111;240;1074;-46
2021/08/22 04:07:13;;;;;;;;;;;18.60;72.40;;;;;;493959;240;2004;-46
2021/08/22 04:09:15;;;;;;;;;;;18.70;72.40;;;;;;494366;240;1054;-46
2021/08/22 04:11:16;;;;;;;;;;;18.60;72.30;;;;;;494309;240;1166;-46
2021/08/22 04:13:19;;;;;;;;;;;18.60;72.30;;;;;;494292;240;1270;-46
2021/08/22 04:15:19;;;;;;;;;;;18.70;72.20;;;;;;494273;241;2097;-46
2021/08/22 04:17:20;;;;;;;;;;;18.70;72.20;;;;;;494135;240;1256;-46
2021/08/22 04:19:21;;;;;;;;;;;18.70;72.20;;;;;;494112;240;2187;-46
2021/08/22 04:21:23;;;;;;;;;;;18.70;72.30;;;;;;494004;240;1536;-46
2021/08/22 04:23:24;;;;;;;;;;;18.60;72.30;;;;;;494358;240;1253;-46
2021/08/22 04:25:25;;;;;;;;;;;18.60;72.30;;;;;;494142;240;1411;-46
2021/08/22 04:27:27;;;;;;;;;;;18.70;72.30;;;;;;494568;240;986;-46
2021/08/22 04:29:28;;;;;;;;;;;18.60;72.30;;;;;;494617;240;1049;-46
2021/08/22 04:31:29;;;;;;;;;;;18.70;72.20;;;;;;494194;240;1180;-46
2021/08/22 04:33:31;;;;;;;;;;;18.60;72.30;;;;;;494137;240;1114;-46
2021/08/22 04:35:32;;;;;;;;;;;18.60;72.30;;;;;;494350;240;1037;-46
2021/08/22 04:37:33;;;;;;;;;;;18.60;72.40;;;;;;494094;240;1710;-46
2021/08/22 04:39:35;;;;;;;;;;;18.60;72.40;;;;;;494596;240;2127;-46
2021/08/22 04:41:36;;;;;;;;;;;18.60;72.40;;;;;;494404;240;1100;-46
2021/08/22 04:43:37;;;;;;;;;;;18.60;72.40;;;;;;494386;240;1038;-46
2021/08/22 04:45:39;;;;;;;;;;;18.60;72.40;;;;;;494141;240;1120;-46
2021/08/22 04:47:40;;;;;;;;;;;18.80;72.00;;;;;;494540;240;1136;-46
2021/08/22 04:49:41;;;;;;;;;;;19.10;70.80;;;;;;494548;240;1010;-46
2021/08/22 04:51:43;;;;;;;;;;;19.40;69.80;;;;;;494107;240;1338;-46
2021/08/22 04:53:44;;;;;;;;;;;19.60;68.80;;;;;;494619;240;1011;-47
2021/08/22 04:55:45;;;;;;;;;;;19.80;68.20;;;;;;494496;240;1136;-46
2021/08/22 04:57:46;;;;;;;;;;;19.80;67.70;;;;;;494267;240;1353;-46
2021/08/22 04:59:48;;;;;;;;;;;19.90;67.40;;;;;;494143;240;2143;-46
2021/08/22 05:01:49;;;;;;;;;;;20.00;67.10;;;;;;494079;240;1127;-46
2021/08/22 05:03:50;;;;;;;;;;;20.10;66.90;;;;;;494189;240;1329;-46
2021/08/22 05:05:52;;;;;;;;;;;20.20;66.70;;;;;;493993;240;1976;-47
2021/08/22 05:07:53;;;;;;;;;;;20.20;66.50;;;;;;494104;240;1175;-46
2021/08/22 05:09:54;;;;;;;;;;;20.20;66.30;;;;;;494559;240;1074;-46
2021/08/22 05:11:56;;;;;;;;;;;20.30;66.10;;;;;;494268;240;1205;-47
2021/08/22 05:13:57;;;;;;;;;;;20.30;66.00;;;;;;494491;240;1063;-46
2021/08/22 05:15:58;;;;;;;;;;;20.40;65.90;;;;;;494442;240;1147;-46
2021/08/22 05:18:00;;;;;;;;;;;20.50;65.70;;;;;;494029;240;1232;-47
2021/08/22 05:20:01;;;;;;;;;;;20.50;65.50;;;;;;494125;240;2227;-47
2021/08/22 05:22:02;;;;;;;;;;;20.50;65.40;;;;;;494019;240;1204;-46
2021/08/22 05:24:04;;;;;;;;;;;20.50;65.40;;;;;;494132;240;1027;-47
2021/08/22 05:26:05;;;;;;;;;;;20.50;65.40;;;;;;494527;240;1317;-46
2021/08/22 05:28:06;;;;;;;;;;;20.60;65.30;;;;;;494078;240;1260;-47
2021/08/22 05:30:08;;;;;;;;;;;20.60;65.20;;;;;;494132;240;1066;-46
2021/08/22 05:32:09;;;;;;;;;;;20.60;65.30;;;;;;494134;240;1234;-47
2021/08/22 05:34:10;;;;;;;;;;;20.60;65.20;;;;;;494346;240;1036;-46
2021/08/22 05:36:12;;;;;;;;;;;20.70;65.00;;;;;;494500;240;1735;-46
2021/08/22 05:38:13;;;;;;;;;;;20.70;64.90;;;;;;494194;240;1111;-46
2021/08/22 05:40:14;;;;;;;;;;;20.70;65.00;;;;;;494581;240;2190;-46
2021/08/22 05:42:16;;;;;;;;;;;20.70;64.90;;;;;;494239;240;1305;-46
2021/08/22 05:44:17;;;;;;;;;;;20.80;64.90;;;;;;494050;240;1070;-46
2021/08/22 05:46:18;;;;;;;;;;;20.80;64.80;;;;;;494264;240;1267;-46
2021/08/22 05:48:19;;;;;;;;;;;20.80;64.70;;;;;;494117;240;1076;-46
2021/08/22 05:50:21;;;;;;;;;;;20.80;64.60;;;;;;494079;240;1151;-46
2021/08/22 05:52:22;;;;;;;;;;;20.90;64.60;;;;;;494125;240;1497;-47
2021/08/22 05:54:23;;;;;;;;;;;21.00;64.60;;;;;;494526;240;1074;-46
2021/08/22 05:56:25;;;;;;;;;;;20.90;64.40;;;;;;494279;240;1334;-46
2021/08/22 05:58:26;;;;;;;;;;;21.00;64.40;;;;;;494547;240;1257;-46
2021/08/22 06:00:27;;;;;;;;;;;21.00;64.30;;;;;;494240;240;2143;-46
2021/08/22 06:02:29;;;;;;;;;;;21.00;64.40;;;;;;494491;240;1298;-46
2021/08/22 06:04:31;;;;;;;;;;;21.00;64.20;;;;;;494080;240;1016;-47
2021/08/22 06:06:32;;;;;;;;;;;21.10;64.20;;;;;;494010;241;2245;-46
2021/08/22 06:08:33;;;;;;;;;;;21.00;64.20;;;;;;494152;240;1200;-47
2021/08/22 06:10:34;;;;;;;;;;;21.10;64.20;;;;;;494117;240;1153;-46
2021/08/22 06:12:36;;;;;;;;;;;21.10;64.20;;;;;;494181;240;1209;-46
2021/08/22 06:14:37;;;;;;;;;;;21.10;64.20;;;;;;494255;240;1028;-47
2021/08/22 06:16:38;;;;;;;;;;;21.10;64.20;;;;;;494496;240;1213;-47
2021/08/22 06:18:40;;;;;;;;;;;21.10;64.10;;;;;;494592;240;1053;-46
2021/08/22 06:20:41;;;;;;;;;;;21.20;63.90;;;;;;494564;240;2175;-46
2021/08/22 06:22:42;;;;;;;;;;;21.20;63.90;;;;;;494403;240;1525;-47
2021/08/22 06:24:44;;;;;;;;;;;21.20;63.90;;;;;;494397;240;1034;-47
2021/08/22 06:26:45;;;;;;;;;;;21.20;63.90;;;;;;494075;240;1049;-46
2021/08/22 06:28:46;;;;;;;;;;;21.20;63.80;;;;;;494120;240;1139;-46
2021/08/22 06:30:48;;;;;;;;;;;21.20;63.80;;;;;;494074;240;1045;-46
2021/08/22 06:32:49;;;;;;;;;;;21.20;63.90;;;;;;494522;240;1356;-46
2021/08/22 06:34:50;;;;;;;;;;;21.30;63.90;;;;;;494583;240;1035;-46
2021/08/22 06:36:52;;;;;;;;;;;21.20;63.80;;;;;;494075;240;1356;-46
2021/08/22 06:38:53;;;;;;;;;;;21.20;63.80;;;;;;494121;240;1190;-46
2021/08/22 06:40:54;;;;;;;;;;;21.30;63.90;;;;;;494343;240;2144;-46
2021/08/22 06:42:55;;;;;;;;;;;21.30;63.80;;;;;;494382;240;1115;-46
2021/08/22 06:44:57;;;;;;;;;;;21.30;63.90;;;;;;494125;240;1245;-47
2021/08/22 06:46:58;;;;;;;;;;;21.30;63.90;;;;;;494041;240;1220;-46
2021/08/22 06:48:59;;;;;;;;;;;21.30;63.70;;;;;;494569;240;1150;-46
2021/08/22 06:51:01;;;;;;;;;;;21.40;63.60;;;;;;494425;240;1367;-47
2021/08/22 06:53:02;;;;;;;;;;;21.40;63.60;;;;;;494285;240;1287;-46
2021/08/22 06:55:03;;;;;;;;;;;21.40;63.70;;;;;;494584;240;1058;-46
2021/08/22 06:57:05;;;;;;;;;;;21.40;63.70;;;;;;494492;240;1164;-47
2021/08/22 06:59:06;;;;;;;;;;;21.40;63.70;;;;;;494104;240;1036;-46
2021/08/22 07:01:07;;;;;;;;;;;21.40;63.70;;;;;;494033;240;2135;-46
2021/08/22 07:03:09;;;;;;;;;;;21.40;63.60;;;;;;494503;240;1133;-46
2021/08/22 07:05:10;;;;;;;;;;;21.40;63.60;;;;;;494152;240;1056;-46
2021/08/22 07:07:12;;;;;;;;;;;21.40;63.60;;;;;;494253;240;1250;-46
2021/08/22 07:09:13;;;;;;;;;;;21.40;63.60;;;;;;494176;240;1215;-47
2021/08/22 07:11:14;;;;;;;;;;;21.40;63.60;;;;;;494557;240;983;-47
2021/08/22 07:13:16;;;;;;;;;;;21.40;63.60;;;;;;494065;240;1145;-46
2021/08/22 07:15:17;;;;;;;;;;;21.40;63.60;;;;;;494191;240;1048;-46
2021/08/22 07:17:20;;;;;;;;;;;21.50;63.60;;;;;;494434;240;1087;-46
2021/08/22 07:19:20;;;;;;;;;;;21.40;63.60;;;;;;494038;241;2407;-46
2021/08/22 07:21:21;;;;;;;;;;;21.50;63.80;;;;;;494079;240;2140;-46
2021/08/22 07:23:23;;;;;;;;;;;21.40;64.70;;;;;;494456;240;1143;-46
2021/08/22 07:25:24;;;;;;;;;;;21.30;64.90;;;;;;494581;240;1079;-46
2021/08/22 07:27:25;;;;;;;;;;;21.00;65.90;;;;;;494419;240;1085;-46
2021/08/22 07:29:27;;;;;;;;;;;20.70;67.10;;;;;;494589;240;1042;-46
2021/08/22 07:31:28;;;;;;;;;;;20.40;68.20;;;;;;494054;240;1061;-45
2021/08/22 07:33:29;;;;;;;;;;;20.20;68.90;;;;;;494061;240;1103;-46
2021/08/22 07:35:31;;;;;;;;;;;20.10;69.40;;;;;;494456;240;1141;-46
2021/08/22 07:37:32;;;;;;;;;;;20.00;69.90;;;;;;494270;240;1118;-46
2021/08/22 07:39:33;;;;;;;;;;;19.90;70.10;;;;;;494189;240;1183;-46
2021/08/22 07:41:34;;;;;;;;;;;19.80;70.30;;;;;;494131;240;2194;-46
2021/08/22 07:43:36;;;;;;;;;;;19.80;70.50;;;;;;494050;240;1127;-46
2021/08/22 07:45:37;;;;;;;;;;;19.80;70.50;;;;;;494566;240;1035;-46
2021/08/22 07:47:38;;;;;;;;;;;19.80;70.60;;;;;;494091;240;1225;-46
2021/08/22 07:49:40;;;;;;;;;;;19.70;70.60;;;;;;494563;240;1093;-46
2021/08/22 07:51:42;;;;;;;;;;;19.70;70.80;;;;;;494011;241;1224;-46
2021/08/22 07:53:43;;;;;;;;;;;19.60;70.90;;;;;;494228;240;1130;-46
2021/08/22 07:55:44;;;;;;;;;;;19.60;70.90;;;;;;494108;240;1411;-46
2021/08/22 07:57:45;;;;;;;;;;;19.60;71.00;;;;;;494111;240;1364;-46
2021/08/22 07:59:47;;;;;;;;;;;19.50;71.00;;;;;;494111;240;994;-46
2021/08/22 08:01:48;;;;;;;;;;;19.50;71.10;;;;;;494278;240;2178;-46
2021/08/22 08:03:49;;;;;;;;;;;19.50;71.20;;;;;;494105;240;1064;-46
2021/08/22 08:05:51;;;;;;;;;;;19.50;71.10;;;;;;494079;240;1304;-46
2021/08/22 08:07:52;;;;;;;;;;;19.40;71.20;;;;;;494114;240;1305;-46
2021/08/22 08:09:53;;;;;;;;;;;19.40;71.20;;;;;;494226;240;1183;-46
2021/08/22 08:11:55;;;;;;;;;;;19.40;71.30;;;;;;494507;240;1279;-46
2021/08/22 08:13:56;;;;;;;;;;;19.40;71.30;;;;;;494558;240;1146;-46
2021/08/22 08:15:57;;;;;;;;;;;19.40;71.30;;;;;;494068;240;1173;-46
2021/08/22 08:17:59;;;;;;;;;;;19.40;71.30;;;;;;494502;240;1173;-46
2021/08/22 08:20:00;;;;;;;;;;;19.40;71.20;;;;;;494503;240;1078;-46
2021/08/22 08:22:01;;;;;;;;;;;19.30;71.30;;;;;;494028;240;2132;-46
2021/08/22 08:24:03;;;;;;;;;;;19.30;71.40;;;;;;494334;240;1179;-46
2021/08/22 08:26:04;;;;;;;;;;;19.30;71.60;;;;;;494473;240;1210;-46
2021/08/22 08:28:06;;;;;;;;;;;19.30;71.50;;;;;;494096;240;1267;-46
2021/08/22 08:30:08;;;;;;;;;;;19.20;71.50;;;;;;494504;240;952;-46
2021/08/22 08:32:09;;;;;;;;;;;19.20;71.40;;;;;;494198;240;1133;-46
2021/08/22 08:34:10;;;;;;;;;;;19.30;71.50;;;;;;494553;240;1030;-46
2021/08/22 08:36:11;;;;;;;;;;;19.20;71.40;;;;;;494260;240;1104;-46
2021/08/22 08:38:13;;;;;;;;;;;19.30;71.30;;;;;;494099;240;1188;-46
2021/08/22 08:40:14;;;;;;;;;;;19.20;71.50;;;;;;494241;240;1203;-46
2021/08/22 08:42:15;;;;;;;;;;;19.20;71.60;;;;;;494061;240;2190;-46
2021/08/22 08:44:17;;;;;;;;;;;19.20;71.60;;;;;;494113;240;1042;-46
2021/08/22 08:46:18;;;;;;;;;;;19.10;71.60;;;;;;494400;240;1072;-46
2021/08/22 08:48:19;;;;;;;;;;;19.20;71.60;;;;;;494551;240;1166;-46
2021/08/22 08:50:20;;;;;;;;;;;19.20;71.60;;;;;;494079;240;1342;-46
2021/08/22 08:52:22;;;;;;;;;;;19.20;71.50;;;;;;494491;240;1062;-46
2021/08/22 08:54:23;;;;;;;;;;;19.20;71.50;;;;;;494360;240;1193;-46
2021/08/22 08:56:24;;;;;;;;;;;19.10;71.60;;;;;;494194;240;1253;-46
2021/08/22 08:58:26;;;;;;;;;;;19.10;71.60;;;;;;494090;240;1132;-45
2021/08/22 09:00:27;;;;;;;;;;;19.10;71.60;;;;;;494257;240;1047;-46
2021/08/22 09:02:28;;;;;;;;;;;19.10;71.70;;;;;;494061;240;2139;-46
2021/08/22 09:04:30;;;;;;;;;;;19.10;71.80;;;;;;494081;240;1048;-46
2021/08/22 09:06:31;;;;;;;;;;;19.10;71.70;;;;;;494516;240;1538;-46
2021/08/22 09:08:32;;;;;;;;;;;19.00;71.70;;;;;;494149;240;1048;-46
2021/08/22 09:10:34;;;;;;;;;;;19.10;71.70;;;;;;494074;240;1240;-46
2021/08/22 09:12:35;;;;;;;;;;;19.10;71.70;;;;;;494475;240;1166;-46
2021/08/22 09:14:36;;;;;;;;;;;19.10;71.60;;;;;;494067;240;1150;-46
2021/08/22 09:16:38;;;;;;;;;;;19.10;71.60;;;;;;494179;240;1100;-46
2021/08/22 09:18:39;;;;;;;;;;;19.00;71.70;;;;;;494401;240;1054;-46
2021/08/22 09:20:40;;;;;;;;;;;19.10;71.60;;;;;;494130;240;1040;-46
2021/08/22 09:22:42;;;;;;;;;;;19.10;71.70;;;;;;494121;240;2119;-46
2021/08/22 09:24:43;;;;;;;;;;;19.00;71.70;;;;;;494108;240;1097;-46
2021/08/22 09:26:44;;;;;;;;;;;19.00;71.60;;;;;;494126;240;1056;-46
2021/08/22 09:28:46;;;;;;;;;;;19.00;71.60;;;;;;494346;240;1088;-46
2021/08/22 09:30:47;;;;;;;;;;;19.00;71.60;;;;;;494098;240;929;-46
2021/08/22 09:32:48;;;;;;;;;;;19.00;71.60;;;;;;494394;240;1184;-46
2021/08/22 09:34:50;;;;;;;;;;;19.00;71.60;;;;;;494105;240;1047;-46
2021/08/22 09:36:51;;;;;;;;;;;19.00;71.70;;;;;;494509;240;1180;-46
2021/08/22 09:38:52;;;;;;;;;;;19.00;71.60;;;;;;494104;240;1123;-46
2021/08/22 09:40:53;;;;;;;;;;;19.00;71.70;;;;;;494206;240;1180;-46
2021/08/22 09:42:55;;;;;;;;;;;19.00;71.60;;;;;;494055;240;1286;-46
2021/08/22 09:44:56;;;;;;;;;;;19.00;71.60;;;;;;494582;240;1194;-46
2021/08/22 09:46:58;;;;;;;;;;;19.00;71.80;;;;;;494481;240;1108;-46
2021/08/22 09:48:59;;;;;;;;;;;19.00;71.80;;;;;;494456;240;1125;-46
2021/08/22 09:51:02;;;;;;;;;;;18.90;71.80;;;;;;494514;240;1072;-45
2021/08/22 09:53:02;;;;;;;;;;;19.00;71.80;;;;;;493998;240;2284;-46
2021/08/22 09:55:03;;;;;;;;;;;19.00;71.80;;;;;;494517;240;1269;-46
2021/08/22 09:57:05;;;;;;;;;;;19.00;71.70;;;;;;494588;240;1027;-46
2021/08/22 09:59:06;;;;;;;;;;;19.00;71.80;;;;;;494133;240;1035;-46
2021/08/22 10:01:07;;;;;;;;;;;18.90;71.80;;;;;;494532;240;2147;-46
2021/08/22 10:03:09;;;;;;;;;;;18.90;71.80;;;;;;494111;240;1057;-46
2021/08/22 10:05:10;;;;;;;;;;;18.90;71.80;;;;;;494571;240;1077;-46
2021/08/22 10:07:11;;;;;;;;;;;19.00;71.80;;;;;;494543;240;1082;-46
2021/08/22 10:09:13;;;;;;;;;;;18.90;71.90;;;;;;494106;240;973;-46
2021/08/22 10:11:14;;;;;;;;;;;18.90;71.80;;;;;;494230;240;1185;-46
2021/08/22 10:13:15;;;;;;;;;;;18.90;71.70;;;;;;494533;240;1035;-46
2021/08/22 10:15:17;;;;;;;;;;;18.90;71.80;;;;;;494085;240;1182;-46
2021/08/22 10:17:18;;;;;;;;;;;18.90;71.70;;;;;;494512;240;1208;-46
2021/08/22 10:19:20;;;;;;;;;;;18.90;71.70;;;;;;494547;240;1005;-46
2021/08/22 10:21:21;;;;;;;;;;;18.90;71.80;;;;;;494103;240;2182;-46
2021/08/22 10:23:22;;;;;;;;;;;18.90;71.90;;;;;;494531;240;1214;-46
2021/08/22 10:25:24;;;;;;;;;;;18.90;71.90;;;;;;494163;240;1297;-46
2021/08/22 10:27:25;;;;;;;;;;;18.90;71.80;;;;;;494478;240;1296;-46
2021/08/22 10:29:26;;;;;;;;;;;18.90;71.80;;;;;;494589;240;1236;-46
2021/08/22 10:31:28;;;;;;;;;;;18.90;71.80;;;;;;494538;240;1097;-46
2021/08/22 10:33:29;;;;;;;;;;;18.90;71.80;;;;;;494195;240;1120;-46
2021/08/22 10:35:30;;;;;;;;;;;18.90;71.80;;;;;;494291;240;1325;-46
2021/08/22 10:37:32;;;;;;;;;;;18.90;71.70;;;;;;494045;240;1177;-46
2021/08/22 10:39:33;;;;;;;;;;;18.90;71.70;;;;;;494266;240;1366;-46
2021/08/22 10:41:34;;;;;;;;;;;18.90;71.70;;;;;;494055;240;2363;-45
2021/08/22 10:43:38;;;;;;;;;;;18.90;71.70;;;;;;494558;240;1212;-46
2021/08/22 10:45:37;;;;;;;;;;;18.90;71.90;;;;;;494451;240;1553;-46
2021/08/22 10:47:39;;;;;;;;;;;18.90;71.90;;;;;;494176;240;1063;-46
2021/08/22 10:49:40;;;;;;;;;;;18.90;71.80;;;;;;494123;240;1142;-46
2021/08/22 10:51:41;;;;;;;;;;;18.90;71.80;;;;;;494183;240;1505;-46
2021/08/22 10:53:44;;;;;;;;;;;18.90;71.90;;;;;;494574;240;1056;-46
2021/08/22 10:55:45;;;;;;;;;;;18.90;71.90;;;;;;494495;240;1194;-46
2021/08/22 10:57:48;;;;;;;;;;;18.80;71.90;;;;;;494153;240;1171;-46
2021/08/22 10:59:48;;;;;;;;;;;18.90;71.90;;;;;;494520;241;1932;-46
2021/08/22 11:01:49;;;;;;;;;;;18.90;71.80;;;;;;494542;240;2136;-46
2021/08/22 11:03:50;;;;;;;;;;;18.90;71.90;;;;;;494567;240;1178;-46
2021/08/22 11:05:51;;;;;;;;;;;18.80;72.00;;;;;;494429;240;1429;-46
2021/08/22 11:07:54;;;;;;;;;;;18.80;71.90;;;;;;494498;240;1235;-46
2021/08/22 11:09:54;;;;;;;;;;;18.80;71.90;;;;;;494054;240;2573;-46
2021/08/22 11:11:55;;;;;;;;;;;18.80;72.00;;;;;;494193;240;1283;-46
2021/08/22 11:13:57;;;;;;;;;;;18.80;72.00;;;;;;494577;240;1166;-46
2021/08/22 11:15:58;;;;;;;;;;;18.90;72.00;;;;;;494191;240;1072;-46
2021/08/22 11:17:59;;;;;;;;;;;18.80;71.90;;;;;;494419;240;1178;-46
2021/08/22 11:20:01;;;;;;;;;;;18.80;72.00;;;;;;494077;240;1063;-46
2021/08/22 11:22:02;;;;;;;;;;;18.80;71.90;;;;;;494371;240;2120;-46
2021/08/22 11:24:03;;;;;;;;;;;18.80;72.00;;;;;;494480;240;1153;-46
2021/08/22 11:26:05;;;;;;;;;;;18.80;72.00;;;;;;494252;240;1299;-46
2021/08/22 11:28:06;;;;;;;;;;;18.80;72.00;;;;;;494318;240;1219;-46
2021/08/22 11:30:08;;;;;;;;;;;18.80;72.00;;;;;;494102;240;1045;-45
2021/08/22 11:32:09;;;;;;;;;;;18.80;71.90;;;;;;494122;240;1392;-46
2021/08/22 11:34:11;;;;;;;;;;;18.80;71.90;;;;;;494108;240;1063;-46
2021/08/22 11:36:13;;;;;;;;;;;18.80;72.00;;;;;;494483;240;1065;-46
2021/08/22 11:38:14;;;;;;;;;;;18.80;72.00;;;;;;494044;240;1042;-46
2021/08/22 11:40:15;;;;;;;;;;;18.80;72.00;;;;;;494073;240;1041;-46
2021/08/22 11:42:17;;;;;;;;;;;18.80;72.00;;;;;;494080;240;2183;-46
2021/08/22 11:44:18;;;;;;;;;;;18.80;72.00;;;;;;494573;240;1145;-46
2021/08/22 11:46:22;;;;;;;;;;;18.80;72.00;;;;;;494046;240;1033;-46
2021/08/22 11:48:21;;;;;;;;;;;18.80;72.00;;;;;;493892;241;2307;-46
2021/08/22 11:50:23;;;;;;;;;;;18.80;71.90;;;;;;494314;240;1078;-46
2021/08/22 11:52:23;;;;;;;;;;;18.80;72.00;;;;;;494016;240;1383;-46
2021/08/22 11:54:25;;;;;;;;;;;18.80;72.00;;;;;;494246;240;1175;-46
2021/08/22 11:56:26;;;;;;;;;;;18.80;72.00;;;;;;494434;240;1214;-46